sensor_id;sensor_type;location;lat;lon;timestamp;P1;durP1;ratioP1;P2;durP2;ratioP2
21038;SDS011;10678;51.002;4.786;2023-02-13T00:01:51;55.47;;;26.17;;
21038;SDS011;10678;51.002;4.786;2023-02-13T00:04:16;68.60;;;27.47;;
21038;SDS011;10678;51.002;4.786;2023-02-13T00:06:42;52.77;;;23.97;;
21038;SDS011;10678;51.002;4.786;2023-02-13T00:09:08;66.63;;;27.97;;
21038;SDS011;10678;51.002;4.786;2023-02-13T00:11:35;64.23;;;26.80;;
21038;SDS011;10678;51.002;4.786;2023-02-13T00:14:01;69.13;;;27.10;;
21038;SDS011;10678;51.002;4.786;2023-02-13T00:16:26;63.33;;;26.93;;
21038;SDS011;10678;51.002;4.786;2023-02-13T00:18:52;72.43;;;27.43;;
21038;SDS011;10678;51.002;4.786;2023-02-13T00:21:17;60.03;;;25.00;;
21038;SDS011;10678;51.002;4.786;2023-02-13T00:23:43;54.10;;;25.07;;
21038;SDS011;10678;51.002;4.786;2023-02-13T00:26:10;58.27;;;25.43;;
21038;SDS011;10678;51.002;4.786;2023-02-13T00:28:37;64.67;;;27.60;;
21038;SDS011;10678;51.002;4.786;2023-02-13T00:31:08;58.63;;;24.63;;
21038;SDS011;10678;51.002;4.786;2023-02-13T00:33:38;57.63;;;24.57;;
21038;SDS011;10678;51.002;4.786;2023-02-13T00:36:08;54.70;;;24.27;;
21038;SDS011;10678;51.002;4.786;2023-02-13T00:38:42;48.87;;;19.97;;
21038;SDS011;10678;51.002;4.786;2023-02-13T00:41:08;47.93;;;20.83;;
21038;SDS011;10678;51.002;4.786;2023-02-13T00:43:35;44.80;;;19.13;;
21038;SDS011;10678;51.002;4.786;2023-02-13T00:46:01;43.37;;;20.47;;
21038;SDS011;10678;51.002;4.786;2023-02-13T00:48:28;52.90;;;22.53;;
21038;SDS011;10678;51.002;4.786;2023-02-13T00:50:55;47.17;;;22.23;;
21038;SDS011;10678;51.002;4.786;2023-02-13T00:53:21;55.53;;;23.93;;
21038;SDS011;10678;51.002;4.786;2023-02-13T00:55:47;54.10;;;23.83;;
21038;SDS011;10678;51.002;4.786;2023-02-13T00:58:13;61.10;;;25.33;;
21038;SDS011;10678;51.002;4.786;2023-02-13T01:00:40;63.77;;;28.00;;
21038;SDS011;10678;51.002;4.786;2023-02-13T01:03:06;58.07;;;24.07;;
21038;SDS011;10678;51.002;4.786;2023-02-13T01:05:32;65.17;;;25.50;;
21038;SDS011;10678;51.002;4.786;2023-02-13T01:07:57;64.23;;;26.63;;
21038;SDS011;10678;51.002;4.786;2023-02-13T01:10:23;55.30;;;23.63;;
21038;SDS011;10678;51.002;4.786;2023-02-13T01:12:50;55.70;;;23.80;;
21038;SDS011;10678;51.002;4.786;2023-02-13T01:15:15;56.77;;;23.43;;
21038;SDS011;10678;51.002;4.786;2023-02-13T01:17:41;56.67;;;24.50;;
21038;SDS011;10678;51.002;4.786;2023-02-13T01:20:07;65.70;;;25.73;;
21038;SDS011;10678;51.002;4.786;2023-02-13T01:22:34;70.37;;;27.43;;
21038;SDS011;10678;51.002;4.786;2023-02-13T01:25:00;64.23;;;25.30;;
21038;SDS011;10678;51.002;4.786;2023-02-13T01:27:26;61.60;;;25.43;;
21038;SDS011;10678;51.002;4.786;2023-02-13T01:29:52;64.23;;;25.70;;
21038;SDS011;10678;51.002;4.786;2023-02-13T01:32:18;67.03;;;24.73;;
21038;SDS011;10678;51.002;4.786;2023-02-13T01:34:45;61.10;;;25.83;;
21038;SDS011;10678;51.002;4.786;2023-02-13T01:37:10;66.17;;;26.63;;
21038;SDS011;10678;51.002;4.786;2023-02-13T01:39:36;62.67;;;25.63;;
21038;SDS011;10678;51.002;4.786;2023-02-13T01:42:02;64.83;;;25.90;;
21038;SDS011;10678;51.002;4.786;2023-02-13T01:47:09;54.80;;;23.13;;
21038;SDS011;10678;51.002;4.786;2023-02-13T01:49:38;49.37;;;21.63;;
21038;SDS011;10678;51.002;4.786;2023-02-13T01:52:05;51.00;;;21.90;;
21038;SDS011;10678;51.002;4.786;2023-02-13T01:54:33;52.57;;;21.43;;
21038;SDS011;10678;51.002;4.786;2023-02-13T01:57:01;54.73;;;21.93;;
21038;SDS011;10678;51.002;4.786;2023-02-13T01:59:50;49.47;;;19.67;;
21038;SDS011;10678;51.002;4.786;2023-02-13T02:02:33;46.67;;;19.77;;
21038;SDS011;10678;51.002;4.786;2023-02-13T02:05:02;50.93;;;22.27;;
21038;SDS011;10678;51.002;4.786;2023-02-13T02:07:30;47.70;;;21.40;;
21038;SDS011;10678;51.002;4.786;2023-02-13T02:09:58;54.43;;;21.37;;
21038;SDS011;10678;51.002;4.786;2023-02-13T02:12:31;142.43;;;26.23;;
21038;SDS011;10678;51.002;4.786;2023-02-13T02:15:03;186.80;;;28.60;;
21038;SDS011;10678;51.002;4.786;2023-02-13T02:17:29;177.43;;;32.90;;
21038;SDS011;10678;51.002;4.786;2023-02-13T02:20:17;71.23;;;26.33;;
21038;SDS011;10678;51.002;4.786;2023-02-13T02:34:20;79.33;;;19.70;;
21038;SDS011;10678;51.002;4.786;2023-02-13T02:40:03;98.50;;;21.60;;
21038;SDS011;10678;51.002;4.786;2023-02-13T02:45:19;87.37;;;20.67;;
21038;SDS011;10678;51.002;4.786;2023-02-13T02:50:50;68.37;;;21.50;;
21038;SDS011;10678;51.002;4.786;2023-02-13T02:56:07;89.63;;;20.50;;
21038;SDS011;10678;51.002;4.786;2023-02-13T02:58:55;92.23;;;20.13;;
21038;SDS011;10678;51.002;4.786;2023-02-13T03:01:49;73.57;;;20.27;;
21038;SDS011;10678;51.002;4.786;2023-02-13T03:04:39;67.47;;;19.80;;
21038;SDS011;10678;51.002;4.786;2023-02-13T03:07:35;85.10;;;20.00;;
21038;SDS011;10678;51.002;4.786;2023-02-13T03:10:03;73.80;;;19.50;;
21038;SDS011;10678;51.002;4.786;2023-02-13T03:13:00;95.63;;;20.63;;
21038;SDS011;10678;51.002;4.786;2023-02-13T03:15:46;55.63;;;19.27;;
21038;SDS011;10678;51.002;4.786;2023-02-13T03:18:34;53.37;;;18.90;;
21038;SDS011;10678;51.002;4.786;2023-02-13T03:24:59;65.87;;;17.77;;
21038;SDS011;10678;51.002;4.786;2023-02-13T03:36:02;81.57;;;19.00;;
21038;SDS011;10678;51.002;4.786;2023-02-13T03:39:04;70.30;;;17.70;;
21038;SDS011;10678;51.002;4.786;2023-02-13T03:44:26;95.57;;;15.97;;
21038;SDS011;10678;51.002;4.786;2023-02-13T03:47:07;57.33;;;15.57;;
21038;SDS011;10678;51.002;4.786;2023-02-13T03:49:37;47.17;;;16.20;;
21038;SDS011;10678;51.002;4.786;2023-02-13T03:55:24;69.87;;;16.67;;
21038;SDS011;10678;51.002;4.786;2023-02-13T03:58:40;45.23;;;14.83;;
21038;SDS011;10678;51.002;4.786;2023-02-13T04:01:27;53.20;;;17.23;;
21038;SDS011;10678;51.002;4.786;2023-02-13T04:06:29;65.67;;;19.73;;
21038;SDS011;10678;51.002;4.786;2023-02-13T04:08:58;65.27;;;19.50;;
21038;SDS011;10678;51.002;4.786;2023-02-13T04:11:27;70.37;;;20.90;;
21038;SDS011;10678;51.002;4.786;2023-02-13T04:14:06;70.17;;;20.30;;
21038;SDS011;10678;51.002;4.786;2023-02-13T04:16:43;144.13;;;20.90;;
21038;SDS011;10678;51.002;4.786;2023-02-13T04:19:13;106.33;;;20.50;;
21038;SDS011;10678;51.002;4.786;2023-02-13T04:21:40;91.60;;;21.23;;
21038;SDS011;10678;51.002;4.786;2023-02-13T04:24:06;116.70;;;20.80;;
21038;SDS011;10678;51.002;4.786;2023-02-13T04:26:36;94.60;;;21.97;;
21038;SDS011;10678;51.002;4.786;2023-02-13T04:29:04;108.83;;;22.53;;
21038;SDS011;10678;51.002;4.786;2023-02-13T04:31:30;113.40;;;23.60;;
21038;SDS011;10678;51.002;4.786;2023-02-13T04:33:56;99.30;;;21.87;;
21038;SDS011;10678;51.002;4.786;2023-02-13T04:36:21;121.80;;;22.73;;
21038;SDS011;10678;51.002;4.786;2023-02-13T04:38:47;107.83;;;23.10;;
21038;SDS011;10678;51.002;4.786;2023-02-13T04:41:12;84.70;;;22.97;;
21038;SDS011;10678;51.002;4.786;2023-02-13T04:43:38;104.50;;;21.73;;
21038;SDS011;10678;51.002;4.786;2023-02-13T04:46:04;89.73;;;20.37;;
21038;SDS011;10678;51.002;4.786;2023-02-13T04:48:29;110.37;;;22.20;;
21038;SDS011;10678;51.002;4.786;2023-02-13T04:50:55;111.87;;;22.20;;
21038;SDS011;10678;51.002;4.786;2023-02-13T04:53:21;75.37;;;21.13;;
21038;SDS011;10678;51.002;4.786;2023-02-13T04:55:46;56.87;;;19.63;;
21038;SDS011;10678;51.002;4.786;2023-02-13T04:58:12;85.13;;;19.20;;
21038;SDS011;10678;51.002;4.786;2023-02-13T05:00:37;54.23;;;17.93;;
21038;SDS011;10678;51.002;4.786;2023-02-13T05:03:08;69.87;;;17.53;;
21038;SDS011;10678;51.002;4.786;2023-02-13T05:05:35;85.27;;;17.27;;
21038;SDS011;10678;51.002;4.786;2023-02-13T05:08:01;57.30;;;15.87;;
21038;SDS011;10678;51.002;4.786;2023-02-13T05:10:28;86.90;;;17.07;;
21038;SDS011;10678;51.002;4.786;2023-02-13T05:12:53;72.67;;;16.67;;
21038;SDS011;10678;51.002;4.786;2023-02-13T05:15:19;88.63;;;16.57;;
21038;SDS011;10678;51.002;4.786;2023-02-13T05:17:47;76.43;;;16.37;;
21038;SDS011;10678;51.002;4.786;2023-02-13T05:20:13;100.43;;;17.23;;
21038;SDS011;10678;51.002;4.786;2023-02-13T05:22:42;75.87;;;15.97;;
21038;SDS011;10678;51.002;4.786;2023-02-13T05:25:34;74.37;;;15.43;;
21038;SDS011;10678;51.002;4.786;2023-02-13T05:28:00;56.27;;;14.37;;
21038;SDS011;10678;51.002;4.786;2023-02-13T05:30:27;66.30;;;15.87;;
21038;SDS011;10678;51.002;4.786;2023-02-13T05:32:52;72.37;;;15.37;;
21038;SDS011;10678;51.002;4.786;2023-02-13T05:35:19;61.10;;;15.17;;
21038;SDS011;10678;51.002;4.786;2023-02-13T05:37:49;58.00;;;14.17;;
21038;SDS011;10678;51.002;4.786;2023-02-13T05:40:15;61.67;;;14.10;;
21038;SDS011;10678;51.002;4.786;2023-02-13T05:42:41;32.17;;;14.43;;
21038;SDS011;10678;51.002;4.786;2023-02-13T05:45:07;72.17;;;14.10;;
21038;SDS011;10678;51.002;4.786;2023-02-13T05:47:33;43.47;;;14.03;;
21038;SDS011;10678;51.002;4.786;2023-02-13T05:49:59;34.57;;;14.13;;
21038;SDS011;10678;51.002;4.786;2023-02-13T05:52:25;45.07;;;13.83;;
21038;SDS011;10678;51.002;4.786;2023-02-13T05:54:50;38.27;;;14.20;;
21038;SDS011;10678;51.002;4.786;2023-02-13T05:57:16;36.27;;;13.00;;
21038;SDS011;10678;51.002;4.786;2023-02-13T05:59:42;23.97;;;12.73;;
21038;SDS011;10678;51.002;4.786;2023-02-13T06:02:07;26.10;;;12.97;;
21038;SDS011;10678;51.002;4.786;2023-02-13T06:04:33;23.83;;;12.93;;
21038;SDS011;10678;51.002;4.786;2023-02-13T06:06:59;27.87;;;13.60;;
21038;SDS011;10678;51.002;4.786;2023-02-13T06:09:24;23.03;;;12.50;;
21038;SDS011;10678;51.002;4.786;2023-02-13T06:11:50;23.10;;;13.23;;
21038;SDS011;10678;51.002;4.786;2023-02-13T06:14:15;22.67;;;12.20;;
21038;SDS011;10678;51.002;4.786;2023-02-13T06:16:41;20.63;;;11.60;;
21038;SDS011;10678;51.002;4.786;2023-02-13T06:19:06;22.50;;;11.83;;
21038;SDS011;10678;51.002;4.786;2023-02-13T06:21:32;23.37;;;12.47;;
21038;SDS011;10678;51.002;4.786;2023-02-13T06:24:02;22.43;;;12.37;;
21038;SDS011;10678;51.002;4.786;2023-02-13T06:26:28;22.53;;;12.80;;
21038;SDS011;10678;51.002;4.786;2023-02-13T06:28:54;22.33;;;12.37;;
21038;SDS011;10678;51.002;4.786;2023-02-13T06:31:19;21.63;;;12.40;;
21038;SDS011;10678;51.002;4.786;2023-02-13T06:33:45;22.57;;;12.10;;
21038;SDS011;10678;51.002;4.786;2023-02-13T06:36:11;20.97;;;12.00;;
21038;SDS011;10678;51.002;4.786;2023-02-13T06:38:37;21.20;;;12.10;;
21038;SDS011;10678;51.002;4.786;2023-02-13T06:41:02;24.67;;;13.13;;
21038;SDS011;10678;51.002;4.786;2023-02-13T06:43:28;22.23;;;11.37;;
21038;SDS011;10678;51.002;4.786;2023-02-13T06:45:54;22.13;;;12.47;;
21038;SDS011;10678;51.002;4.786;2023-02-13T06:48:19;21.50;;;12.07;;
21038;SDS011;10678;51.002;4.786;2023-02-13T06:50:45;20.97;;;12.37;;
21038;SDS011;10678;51.002;4.786;2023-02-13T06:53:11;22.17;;;12.67;;
21038;SDS011;10678;51.002;4.786;2023-02-13T06:55:36;18.77;;;11.10;;
21038;SDS011;10678;51.002;4.786;2023-02-13T06:58:05;20.57;;;11.33;;
21038;SDS011;10678;51.002;4.786;2023-02-13T07:00:31;22.00;;;12.33;;
21038;SDS011;10678;51.002;4.786;2023-02-13T07:03:00;19.27;;;11.53;;
21038;SDS011;10678;51.002;4.786;2023-02-13T07:05:27;22.40;;;12.03;;
21038;SDS011;10678;51.002;4.786;2023-02-13T07:07:53;23.67;;;11.57;;
21038;SDS011;10678;51.002;4.786;2023-02-13T07:10:19;23.23;;;11.97;;
21038;SDS011;10678;51.002;4.786;2023-02-13T07:12:44;19.57;;;11.57;;
21038;SDS011;10678;51.002;4.786;2023-02-13T07:15:10;22.30;;;11.47;;
21038;SDS011;10678;51.002;4.786;2023-02-13T07:17:36;20.93;;;11.43;;
21038;SDS011;10678;51.002;4.786;2023-02-13T07:20:02;23.80;;;12.23;;
21038;SDS011;10678;51.002;4.786;2023-02-13T07:22:29;21.77;;;11.60;;
21038;SDS011;10678;51.002;4.786;2023-02-13T07:24:56;21.13;;;11.23;;
21038;SDS011;10678;51.002;4.786;2023-02-13T07:27:22;22.03;;;11.37;;
21038;SDS011;10678;51.002;4.786;2023-02-13T07:29:48;26.17;;;12.53;;
21038;SDS011;10678;51.002;4.786;2023-02-13T07:32:14;27.80;;;12.80;;
21038;SDS011;10678;51.002;4.786;2023-02-13T07:34:39;25.07;;;12.87;;
21038;SDS011;10678;51.002;4.786;2023-02-13T07:37:05;22.10;;;12.20;;
21038;SDS011;10678;51.002;4.786;2023-02-13T07:39:31;27.00;;;13.23;;
21038;SDS011;10678;51.002;4.786;2023-02-13T07:41:56;26.77;;;14.00;;
21038;SDS011;10678;51.002;4.786;2023-02-13T07:44:22;23.73;;;12.70;;
21038;SDS011;10678;51.002;4.786;2023-02-13T07:46:47;23.80;;;13.97;;
21038;SDS011;10678;51.002;4.786;2023-02-13T07:49:13;27.07;;;13.83;;
21038;SDS011;10678;51.002;4.786;2023-02-13T07:51:39;25.23;;;13.37;;
21038;SDS011;10678;51.002;4.786;2023-02-13T07:54:04;23.20;;;13.60;;
21038;SDS011;10678;51.002;4.786;2023-02-13T07:56:30;26.80;;;14.47;;
21038;SDS011;10678;51.002;4.786;2023-02-13T07:58:55;32.00;;;16.30;;
21038;SDS011;10678;51.002;4.786;2023-02-13T08:01:21;33.40;;;16.43;;
21038;SDS011;10678;51.002;4.786;2023-02-13T08:03:47;33.40;;;17.70;;
21038;SDS011;10678;51.002;4.786;2023-02-13T08:06:17;30.63;;;15.27;;
21038;SDS011;10678;51.002;4.786;2023-02-13T08:08:43;27.53;;;15.87;;
21038;SDS011;10678;51.002;4.786;2023-02-13T08:11:21;29.00;;;16.07;;
21038;SDS011;10678;51.002;4.786;2023-02-13T08:14:09;31.43;;;15.87;;
21038;SDS011;10678;51.002;4.786;2023-02-13T08:16:34;33.07;;;16.93;;
21038;SDS011;10678;51.002;4.786;2023-02-13T08:19:00;34.90;;;18.80;;
21038;SDS011;10678;51.002;4.786;2023-02-13T08:21:25;29.57;;;17.00;;
21038;SDS011;10678;51.002;4.786;2023-02-13T08:23:51;29.17;;;15.60;;
21038;SDS011;10678;51.002;4.786;2023-02-13T08:26:17;29.57;;;17.00;;
21038;SDS011;10678;51.002;4.786;2023-02-13T08:28:42;28.63;;;16.33;;
21038;SDS011;10678;51.002;4.786;2023-02-13T08:31:08;28.10;;;14.93;;
21038;SDS011;10678;51.002;4.786;2023-02-13T08:33:35;25.37;;;14.47;;
21038;SDS011;10678;51.002;4.786;2023-02-13T08:36:03;25.40;;;14.40;;
21038;SDS011;10678;51.002;4.786;2023-02-13T08:38:30;24.50;;;15.00;;
21038;SDS011;10678;51.002;4.786;2023-02-13T08:40:56;22.90;;;12.77;;
21038;SDS011;10678;51.002;4.786;2023-02-13T08:43:22;26.53;;;14.07;;
21038;SDS011;10678;51.002;4.786;2023-02-13T08:45:47;23.07;;;12.53;;
21038;SDS011;10678;51.002;4.786;2023-02-13T08:48:13;23.00;;;13.00;;
21038;SDS011;10678;51.002;4.786;2023-02-13T08:50:38;24.37;;;13.70;;
21038;SDS011;10678;51.002;4.786;2023-02-13T08:53:04;21.93;;;12.97;;
21038;SDS011;10678;51.002;4.786;2023-02-13T08:55:30;25.77;;;13.97;;
21038;SDS011;10678;51.002;4.786;2023-02-13T08:57:58;25.33;;;13.90;;
21038;SDS011;10678;51.002;4.786;2023-02-13T09:00:25;24.50;;;14.83;;
21038;SDS011;10678;51.002;4.786;2023-02-13T09:02:50;27.23;;;13.77;;
21038;SDS011;10678;51.002;4.786;2023-02-13T09:05:16;28.00;;;13.87;;
21038;SDS011;10678;51.002;4.786;2023-02-13T09:07:41;23.33;;;13.73;;
21038;SDS011;10678;51.002;4.786;2023-02-13T09:10:07;25.60;;;15.20;;
21038;SDS011;10678;51.002;4.786;2023-02-13T09:12:33;25.53;;;13.97;;
21038;SDS011;10678;51.002;4.786;2023-02-13T09:14:58;24.83;;;14.48;;
21038;SDS011;10678;51.002;4.786;2023-02-13T09:17:24;23.60;;;15.18;;
21038;SDS011;10678;51.002;4.786;2023-02-13T09:19:49;25.75;;;14.48;;
21038;SDS011;10678;51.002;4.786;2023-02-13T09:22:15;22.08;;;14.32;;
21038;SDS011;10678;51.002;4.786;2023-02-13T09:24:41;22.20;;;13.00;;
21038;SDS011;10678;51.002;4.786;2023-02-13T09:27:07;20.02;;;12.52;;
21038;SDS011;10678;51.002;4.786;2023-02-13T09:29:33;19.48;;;12.48;;
21038;SDS011;10678;51.002;4.786;2023-02-13T09:31:58;22.33;;;12.40;;
21038;SDS011;10678;51.002;4.786;2023-02-13T09:34:24;20.25;;;12.57;;
21038;SDS011;10678;51.002;4.786;2023-02-13T09:36:51;21.35;;;12.45;;
21038;SDS011;10678;51.002;4.786;2023-02-13T09:39:17;21.38;;;13.38;;
21038;SDS011;10678;51.002;4.786;2023-02-13T09:41:43;21.52;;;12.55;;
21038;SDS011;10678;51.002;4.786;2023-02-13T09:49:46;20.63;;;11.95;;
21038;SDS011;10678;51.002;4.786;2023-02-13T09:52:15;17.52;;;11.30;;
21038;SDS011;10678;51.002;4.786;2023-02-13T09:54:41;15.32;;;9.85;;
21038;SDS011;10678;51.002;4.786;2023-02-13T10:05:19;17.52;;;10.68;;
21038;SDS011;10678;51.002;4.786;2023-02-13T10:13:22;14.98;;;10.00;;
21038;SDS011;10678;51.002;4.786;2023-02-13T10:16:20;17.27;;;11.07;;
21038;SDS011;10678;51.002;4.786;2023-02-13T10:21:41;16.77;;;10.52;;
21038;SDS011;10678;51.002;4.786;2023-02-13T10:24:29;15.30;;;10.30;;
21038;SDS011;10678;51.002;4.786;2023-02-13T10:27:21;15.65;;;10.18;;
21038;SDS011;10678;51.002;4.786;2023-02-13T10:32:33;16.58;;;11.07;;
21038;SDS011;10678;51.002;4.786;2023-02-13T10:35:14;16.25;;;10.98;;
21038;SDS011;10678;51.002;4.786;2023-02-13T10:37:47;15.10;;;10.00;;
21038;SDS011;10678;51.002;4.786;2023-02-13T10:40:17;16.38;;;10.63;;
21038;SDS011;10678;51.002;4.786;2023-02-13T10:42:44;15.00;;;9.60;;
21038;SDS011;10678;51.002;4.786;2023-02-13T10:48:26;15.70;;;10.20;;
21038;SDS011;10678;51.002;4.786;2023-02-13T10:51:23;13.63;;;9.55;;
21038;SDS011;10678;51.002;4.786;2023-02-13T10:54:20;15.82;;;10.15;;
21038;SDS011;10678;51.002;4.786;2023-02-13T10:57:00;16.17;;;10.40;;
21038;SDS011;10678;51.002;4.786;2023-02-13T10:59:45;15.40;;;10.05;;
21038;SDS011;10678;51.002;4.786;2023-02-13T11:04:48;18.38;;;9.63;;
21038;SDS011;10678;51.002;4.786;2023-02-13T11:07:17;20.20;;;9.45;;
21038;SDS011;10678;51.002;4.786;2023-02-13T11:09:46;19.05;;;10.23;;
21038;SDS011;10678;51.002;4.786;2023-02-13T11:14:57;17.23;;;9.80;;
21038;SDS011;10678;51.002;4.786;2023-02-13T11:17:25;17.95;;;9.77;;
21038;SDS011;10678;51.002;4.786;2023-02-13T11:19:56;15.27;;;9.65;;
21038;SDS011;10678;51.002;4.786;2023-02-13T11:22:32;14.95;;;8.02;;
21038;SDS011;10678;51.002;4.786;2023-02-13T11:25:02;14.85;;;9.13;;
21038;SDS011;10678;51.002;4.786;2023-02-13T11:27:41;13.95;;;9.10;;
21038;SDS011;10678;51.002;4.786;2023-02-13T11:32:57;15.63;;;9.25;;
21038;SDS011;10678;51.002;4.786;2023-02-13T11:35:30;13.52;;;9.23;;
21038;SDS011;10678;51.002;4.786;2023-02-13T11:40:45;13.75;;;8.40;;
21038;SDS011;10678;51.002;4.786;2023-02-13T11:43:19;11.35;;;8.15;;
21038;SDS011;10678;51.002;4.786;2023-02-13T11:45:46;11.63;;;8.02;;
21038;SDS011;10678;51.002;4.786;2023-02-13T11:48:23;12.70;;;8.52;;
21038;SDS011;10678;51.002;4.786;2023-02-13T11:50:52;10.52;;;7.45;;
21038;SDS011;10678;51.002;4.786;2023-02-13T11:53:26;12.13;;;8.40;;
21038;SDS011;10678;51.002;4.786;2023-02-13T11:56:10;9.88;;;7.40;;
21038;SDS011;10678;51.002;4.786;2023-02-13T11:58:39;11.02;;;7.85;;
21038;SDS011;10678;51.002;4.786;2023-02-13T12:04:15;11.43;;;7.47;;
21038;SDS011;10678;51.002;4.786;2023-02-13T12:09:53;10.35;;;7.38;;
21038;SDS011;10678;51.002;4.786;2023-02-13T12:12:34;10.98;;;7.22;;
21038;SDS011;10678;51.002;4.786;2023-02-13T12:15:18;9.57;;;6.88;;
21038;SDS011;10678;51.002;4.786;2023-02-13T12:18:01;8.80;;;6.47;;
21038;SDS011;10678;51.002;4.786;2023-02-13T12:23:31;8.52;;;6.50;;
21038;SDS011;10678;51.002;4.786;2023-02-13T12:26:03;9.38;;;6.90;;
21038;SDS011;10678;51.002;4.786;2023-02-13T12:29:07;10.77;;;7.10;;
21038;SDS011;10678;51.002;4.786;2023-02-13T12:46:09;9.82;;;6.75;;
21038;SDS011;10678;51.002;4.786;2023-02-13T12:51:31;9.90;;;7.15;;
21038;SDS011;10678;51.002;4.786;2023-02-13T12:59:44;11.02;;;6.97;;
21038;SDS011;10678;51.002;4.786;2023-02-13T13:10:51;10.68;;;6.20;;
21038;SDS011;10678;51.002;4.786;2023-02-13T13:21:10;10.77;;;6.63;;
21038;SDS011;10678;51.002;4.786;2023-02-13T13:26:45;14.80;;;7.00;;
21038;SDS011;10678;51.002;4.786;2023-02-13T13:32:04;9.30;;;5.93;;
21038;SDS011;10678;51.002;4.786;2023-02-13T13:34:33;10.80;;;6.03;;
21038;SDS011;10678;51.002;4.786;2023-02-13T13:47:50;10.15;;;5.72;;
21038;SDS011;10678;51.002;4.786;2023-02-13T13:50:27;12.00;;;5.72;;
21038;SDS011;10678;51.002;4.786;2023-02-13T13:58:22;12.15;;;6.93;;
21038;SDS011;10678;51.002;4.786;2023-02-13T14:03:38;10.63;;;5.82;;
21038;SDS011;10678;51.002;4.786;2023-02-13T14:06:05;10.95;;;6.63;;
21038;SDS011;10678;51.002;4.786;2023-02-13T14:11:04;10.30;;;6.00;;
21038;SDS011;10678;51.002;4.786;2023-02-13T14:13:49;11.10;;;6.38;;
21038;SDS011;10678;51.002;4.786;2023-02-13T14:16:35;11.65;;;5.88;;
21038;SDS011;10678;51.002;4.786;2023-02-13T14:19:05;11.80;;;6.90;;
21038;SDS011;10678;51.002;4.786;2023-02-13T14:21:46;12.23;;;6.40;;
21038;SDS011;10678;51.002;4.786;2023-02-13T14:24:12;15.15;;;6.63;;
21038;SDS011;10678;51.002;4.786;2023-02-13T14:26:38;11.63;;;6.55;;
21038;SDS011;10678;51.002;4.786;2023-02-13T14:29:21;11.40;;;6.78;;
21038;SDS011;10678;51.002;4.786;2023-02-13T14:31:53;11.25;;;6.05;;
21038;SDS011;10678;51.002;4.786;2023-02-13T14:34:38;11.15;;;6.35;;
21038;SDS011;10678;51.002;4.786;2023-02-13T14:40:11;11.98;;;7.13;;
21038;SDS011;10678;51.002;4.786;2023-02-13T14:42:37;11.32;;;5.63;;
21038;SDS011;10678;51.002;4.786;2023-02-13T14:45:04;13.35;;;6.70;;
21038;SDS011;10678;51.002;4.786;2023-02-13T14:47:40;13.70;;;6.32;;
21038;SDS011;10678;51.002;4.786;2023-02-13T14:50:14;13.15;;;5.95;;
21038;SDS011;10678;51.002;4.786;2023-02-13T14:52:47;12.98;;;6.78;;
21038;SDS011;10678;51.002;4.786;2023-02-13T14:55:33;10.60;;;6.22;;
21038;SDS011;10678;51.002;4.786;2023-02-13T15:00:42;11.82;;;6.13;;
21038;SDS011;10678;51.002;4.786;2023-02-13T15:03:24;11.32;;;5.65;;
21038;SDS011;10678;51.002;4.786;2023-02-13T15:06:11;10.68;;;6.32;;
21038;SDS011;10678;51.002;4.786;2023-02-13T15:08:47;13.35;;;6.53;;
21038;SDS011;10678;51.002;4.786;2023-02-13T15:11:36;12.80;;;6.80;;
21038;SDS011;10678;51.002;4.786;2023-02-13T15:16:53;11.50;;;6.82;;
21038;SDS011;10678;51.002;4.786;2023-02-13T15:19:22;10.90;;;6.20;;
21038;SDS011;10678;51.002;4.786;2023-02-13T15:21:56;12.43;;;6.55;;
21038;SDS011;10678;51.002;4.786;2023-02-13T15:24:24;11.30;;;5.90;;
21038;SDS011;10678;51.002;4.786;2023-02-13T15:26:57;10.73;;;5.95;;
21038;SDS011;10678;51.002;4.786;2023-02-13T15:29:25;11.00;;;6.03;;
21038;SDS011;10678;51.002;4.786;2023-02-13T15:31:52;10.85;;;6.22;;
21038;SDS011;10678;51.002;4.786;2023-02-13T15:34:19;11.73;;;6.60;;
21038;SDS011;10678;51.002;4.786;2023-02-13T15:36:58;14.82;;;6.65;;
21038;SDS011;10678;51.002;4.786;2023-02-13T15:39:25;10.80;;;5.93;;
21038;SDS011;10678;51.002;4.786;2023-02-13T15:41:55;13.13;;;7.15;;
21038;SDS011;10678;51.002;4.786;2023-02-13T15:46:51;12.65;;;6.35;;
21038;SDS011;10678;51.002;4.786;2023-02-13T15:49:19;12.00;;;6.80;;
21038;SDS011;10678;51.002;4.786;2023-02-13T15:51:48;13.25;;;7.07;;
21038;SDS011;10678;51.002;4.786;2023-02-13T15:54:28;13.07;;;6.00;;
21038;SDS011;10678;51.002;4.786;2023-02-13T15:56:56;14.15;;;6.00;;
21038;SDS011;10678;51.002;4.786;2023-02-13T15:59:32;9.70;;;5.70;;
21038;SDS011;10678;51.002;4.786;2023-02-13T16:02:00;10.02;;;6.13;;
21038;SDS011;10678;51.002;4.786;2023-02-13T16:04:28;11.93;;;5.68;;
21038;SDS011;10678;51.002;4.786;2023-02-13T16:06:54;11.40;;;5.32;;
21038;SDS011;10678;51.002;4.786;2023-02-13T16:09:21;12.05;;;6.65;;
21038;SDS011;10678;51.002;4.786;2023-02-13T16:12:06;10.60;;;5.43;;
21038;SDS011;10678;51.002;4.786;2023-02-13T16:15:05;14.48;;;6.18;;
21038;SDS011;10678;51.002;4.786;2023-02-13T16:17:32;12.07;;;5.70;;
21038;SDS011;10678;51.002;4.786;2023-02-13T16:22:33;11.75;;;5.90;;
21038;SDS011;10678;51.002;4.786;2023-02-13T16:25:18;11.05;;;6.03;;
21038;SDS011;10678;51.002;4.786;2023-02-13T16:27:56;11.23;;;6.35;;
21038;SDS011;10678;51.002;4.786;2023-02-13T16:30:29;18.48;;;7.15;;
21038;SDS011;10678;51.002;4.786;2023-02-13T16:33:11;14.23;;;6.00;;
21038;SDS011;10678;51.002;4.786;2023-02-13T16:35:46;15.60;;;6.22;;
21038;SDS011;10678;51.002;4.786;2023-02-13T16:43:56;13.90;;;7.53;;
21038;SDS011;10678;51.002;4.786;2023-02-13T16:46:36;16.05;;;8.65;;
21038;SDS011;10678;51.002;4.786;2023-02-13T16:59:47;20.00;;;9.63;;
21038;SDS011;10678;51.002;4.786;2023-02-13T17:04:45;16.20;;;7.78;;
21038;SDS011;10678;51.002;4.786;2023-02-13T17:07:12;13.77;;;7.28;;
21038;SDS011;10678;51.002;4.786;2023-02-13T17:09:50;17.45;;;8.13;;
21038;SDS011;10678;51.002;4.786;2023-02-13T17:12:17;11.07;;;6.05;;
21038;SDS011;10678;51.002;4.786;2023-02-13T17:14:44;16.48;;;8.00;;
21038;SDS011;10678;51.002;4.786;2023-02-13T17:17:14;15.73;;;7.57;;
21038;SDS011;10678;51.002;4.786;2023-02-13T17:19:42;24.75;;;8.38;;
21038;SDS011;10678;51.002;4.786;2023-02-13T17:22:16;16.00;;;7.38;;
21038;SDS011;10678;51.002;4.786;2023-02-13T17:24:55;15.52;;;8.95;;
21038;SDS011;10678;51.002;4.786;2023-02-13T17:27:22;20.77;;;10.63;;
21038;SDS011;10678;51.002;4.786;2023-02-13T17:29:47;19.67;;;11.90;;
21038;SDS011;10678;51.002;4.786;2023-02-13T17:32:15;14.98;;;8.05;;
21038;SDS011;10678;51.002;4.786;2023-02-13T17:34:43;25.33;;;12.85;;
21038;SDS011;10678;51.002;4.786;2023-02-13T17:37:21;13.13;;;7.60;;
21038;SDS011;10678;51.002;4.786;2023-02-13T17:39:48;14.63;;;8.65;;
21038;SDS011;10678;51.002;4.786;2023-02-13T17:42:16;15.65;;;8.63;;
21038;SDS011;10678;51.002;4.786;2023-02-13T17:44:44;19.52;;;8.82;;
21038;SDS011;10678;51.002;4.786;2023-02-13T17:47:10;17.52;;;7.72;;
21038;SDS011;10678;51.002;4.786;2023-02-13T17:49:36;15.90;;;7.53;;
21038;SDS011;10678;51.002;4.786;2023-02-13T17:52:02;19.23;;;8.00;;
21038;SDS011;10678;51.002;4.786;2023-02-13T17:54:27;14.80;;;8.23;;
21038;SDS011;10678;51.002;4.786;2023-02-13T17:56:53;16.88;;;10.32;;
21038;SDS011;10678;51.002;4.786;2023-02-13T17:59:19;20.83;;;10.25;;